createdAt,value
2018-11-25T00:00:01.856Z,80.80
2018-11-25T00:02:29.927Z,80.80
2018-11-25T00:04:58.106Z,80.80
2018-11-25T00:07:26.213Z,80.80
2018-11-25T00:09:54.282Z,80.80
2018-11-25T00:12:22.680Z,80.60
2018-11-25T00:14:50.807Z,80.70
2018-11-25T00:17:18.940Z,80.70
2018-11-25T00:19:47.015Z,80.60
2018-11-25T00:22:15.131Z,80.70
2018-11-25T00:24:43.244Z,80.70
2018-11-25T00:27:11.403Z,80.70
2018-11-25T00:29:39.475Z,80.70
2018-11-25T00:32:07.591Z,81.40
2018-11-25T00:34:35.644Z,80.70
2018-11-25T00:37:03.748Z,80.70
2018-11-25T00:39:31.870Z,80.60
2018-11-25T00:41:59.936Z,80.50
2018-11-25T00:44:28.007Z,80.40
2018-11-25T00:46:56.075Z,80.50
2018-11-25T00:49:24.212Z,80.60
2018-11-25T00:51:52.297Z,80.60
2018-11-25T00:54:20.355Z,81.20
2018-11-25T00:56:48.418Z,80.50
2018-11-25T00:59:16.676Z,80.50
2018-11-25T01:01:44.760Z,80.60
2018-11-25T01:04:12.827Z,80.50
2018-11-25T01:06:41.817Z,80.50
2018-11-25T01:09:09.896Z,80.50
2018-11-25T01:11:37.956Z,80.50
2018-11-25T01:14:06.035Z,80.40
2018-11-25T01:16:34.119Z,80.50
2018-11-25T01:19:02.192Z,80.50
2018-11-25T01:21:30.256Z,80.50
2018-11-25T01:23:58.318Z,80.50
2018-11-25T01:26:26.425Z,80.50
2018-11-25T01:28:54.491Z,80.50
2018-11-25T01:31:22.568Z,80.40
2018-11-25T01:33:50.667Z,80.40
2018-11-25T01:36:18.723Z,80.50
2018-11-25T01:38:47.019Z,80.40
2018-11-25T01:41:15.102Z,80.30
2018-11-25T01:43:43.168Z,80.50
2018-11-25T01:46:11.251Z,80.40
2018-11-25T01:48:39.507Z,80.50
2018-11-25T01:51:07.843Z,80.50
2018-11-25T01:53:35.944Z,80.60
2018-11-25T01:56:04.032Z,80.70
2018-11-25T01:58:32.098Z,80.70
2018-11-25T02:01:00.203Z,80.80
2018-11-25T02:03:28.561Z,80.80
2018-11-25T02:05:56.627Z,80.70
2018-11-25T02:08:24.700Z,81.50
2018-11-25T02:10:52.864Z,80.70
2018-11-25T02:13:20.927Z,80.50
2018-11-25T02:15:49.255Z,80.50
2018-11-25T02:18:17.371Z,80.50
2018-11-25T02:20:45.448Z,80.50
2018-11-25T02:23:13.529Z,80.60
2018-11-25T02:25:41.631Z,80.60
2018-11-25T02:28:09.932Z,80.50
2018-11-25T02:30:38.024Z,80.50
2018-11-25T02:33:07.371Z,80.60
2018-11-25T02:35:35.468Z,80.70
2018-11-25T02:38:03.559Z,80.70
2018-11-25T02:40:31.679Z,80.80
2018-11-25T02:42:59.744Z,80.80
2018-11-25T02:45:27.844Z,81.00
2018-11-25T02:47:55.910Z,81.00
2018-11-25T02:50:29.337Z,81.00
2018-11-25T02:53:00.205Z,81.00
2018-11-25T02:55:28.275Z,81.00
2018-11-25T02:57:56.326Z,81.10
2018-11-25T03:00:24.411Z,81.00
2018-11-25T03:02:52.719Z,81.00
2018-11-25T03:05:20.801Z,81.00
2018-11-25T03:07:48.871Z,81.00
2018-11-25T03:10:16.959Z,81.00
2018-11-25T03:12:45.062Z,81.00
2018-11-25T03:15:15.325Z,81.00
2018-11-25T03:17:43.420Z,81.10
2018-11-25T03:20:12.570Z,81.20
2018-11-25T03:22:40.891Z,81.00
2018-11-25T03:25:17.019Z,81.20
2018-11-25T03:27:45.091Z,81.20
2018-11-25T03:30:15.091Z,81.10
2018-11-25T03:32:43.579Z,81.00
2018-11-25T03:35:12.280Z,80.90
2018-11-25T03:37:40.351Z,80.70
2018-11-25T03:40:15.902Z,80.70
2018-11-25T03:42:44.001Z,80.80
2018-11-25T03:45:14.103Z,80.70
2018-11-25T03:47:42.185Z,80.90
2018-11-25T03:50:11.083Z,80.80
2018-11-25T03:52:39.199Z,80.80
2018-11-25T03:55:08.640Z,80.70
2018-11-25T03:57:36.833Z,80.60
2018-11-25T04:00:11.251Z,80.70
2018-11-25T04:02:39.312Z,80.60
2018-11-25T04:05:09.094Z,80.60
2018-11-25T04:07:37.184Z,80.70
2018-11-25T04:10:07.903Z,80.70
2018-11-25T04:12:35.972Z,80.90
2018-11-25T04:15:04.207Z,80.80
2018-11-25T04:17:32.255Z,80.80
2018-11-25T04:20:00.375Z,80.80
2018-11-25T04:22:28.487Z,80.90
2018-11-25T04:24:56.543Z,80.90
2018-11-25T04:27:24.649Z,80.80
2018-11-25T04:29:52.722Z,80.80
2018-11-25T04:32:20.779Z,80.80
2018-11-25T04:34:48.872Z,80.90
2018-11-25T04:37:16.933Z,80.90
2018-11-25T04:39:45.308Z,80.70
2018-11-25T04:42:13.396Z,80.80
2018-11-25T04:44:41.605Z,80.60
2018-11-25T04:47:09.727Z,80.70
2018-11-25T04:49:37.809Z,80.60
2018-11-25T04:52:06.008Z,80.70
2018-11-25T04:54:34.086Z,80.70
2018-11-25T04:57:02.172Z,80.60
2018-11-25T04:59:30.289Z,80.60
2018-11-25T05:01:58.383Z,80.60
2018-11-25T05:04:26.460Z,80.70
2018-11-25T05:06:54.529Z,80.80
2018-11-25T05:09:22.595Z,80.90
2018-11-25T05:11:50.656Z,81.10
2018-11-25T05:14:18.727Z,81.20
2018-11-25T05:16:46.873Z,81.10
2018-11-25T05:19:14.960Z,81.40
2018-11-25T05:21:43.060Z,81.50
2018-11-25T05:24:11.127Z,81.60
2018-11-25T05:26:39.219Z,81.60
2018-11-25T05:29:07.329Z,81.70
2018-11-25T05:31:35.415Z,81.90
2018-11-25T05:34:03.480Z,81.80
2018-11-25T05:36:31.553Z,81.90
2018-11-25T05:38:59.630Z,82.00
2018-11-25T05:41:27.725Z,82.10
2018-11-25T05:43:55.805Z,82.10
2018-11-25T05:46:23.889Z,82.20
2018-11-25T05:48:51.953Z,82.20
2018-11-25T05:51:20.044Z,82.20
2018-11-25T05:53:48.131Z,82.10
2018-11-25T05:56:16.201Z,82.10
2018-11-25T05:58:44.273Z,82.10
2018-11-25T06:01:12.328Z,82.10
2018-11-25T06:03:40.387Z,82.20
2018-11-25T06:06:08.514Z,82.10
2018-11-25T06:08:36.696Z,82.00
2018-11-25T06:11:04.761Z,82.00
2018-11-25T06:13:32.824Z,81.90
2018-11-25T06:16:00.918Z,82.80
2018-11-25T06:18:29.003Z,82.00
2018-11-25T06:20:57.190Z,82.00
2018-11-25T06:23:25.247Z,82.00
2018-11-25T06:25:53.605Z,82.10
2018-11-25T06:28:21.672Z,82.10
2018-11-25T06:30:49.755Z,82.20
2018-11-25T06:33:17.831Z,82.20
2018-11-25T06:35:45.937Z,82.30
2018-11-25T06:38:14.281Z,82.30
2018-11-25T06:40:42.334Z,82.50
2018-11-25T06:43:10.404Z,82.60
2018-11-25T06:45:38.540Z,82.60
2018-11-25T06:48:07.084Z,82.60
2018-11-25T06:50:35.475Z,82.70
2018-11-25T06:53:03.751Z,82.30
2018-11-25T06:55:31.828Z,82.70
2018-11-25T06:57:59.892Z,82.60
2018-11-25T07:00:27.955Z,82.70
2018-11-25T07:02:56.331Z,82.60
2018-11-25T07:05:24.418Z,82.50
2018-11-25T07:07:52.501Z,82.50
2018-11-25T07:10:21.544Z,82.60
2018-11-25T07:12:51.508Z,82.50
2018-11-25T07:15:19.586Z,82.80
2018-11-25T07:17:47.731Z,82.80
2018-11-25T07:20:16.689Z,82.90
2018-11-25T07:22:44.789Z,83.10
2018-11-25T07:25:15.829Z,83.20
2018-11-25T07:27:43.902Z,83.40
2018-11-25T07:30:15.279Z,83.40
2018-11-25T07:32:43.356Z,83.70
2018-11-25T07:35:11.419Z,83.90
2018-11-25T07:37:39.572Z,84.00
2018-11-25T07:40:10.175Z,84.10
2018-11-25T07:42:38.231Z,84.50
2018-11-25T07:45:09.152Z,84.70
2018-11-25T07:47:37.297Z,84.90
2018-11-25T07:50:07.080Z,84.90
2018-11-25T07:52:35.179Z,85.00
2018-11-25T07:55:03.274Z,85.00
2018-11-25T07:57:31.367Z,85.10
2018-11-25T07:59:59.527Z,85.20
2018-11-25T08:02:27.861Z,85.30
2018-11-25T08:04:55.721Z,85.50
2018-11-25T08:07:24.115Z,85.40
2018-11-25T08:09:52.203Z,85.60
2018-11-25T08:12:20.264Z,85.50
2018-11-25T08:14:48.336Z,85.70
2018-11-25T08:17:16.408Z,85.80
2018-11-25T08:19:44.482Z,85.90
2018-11-25T08:22:12.559Z,85.80
2018-11-25T08:24:40.763Z,85.90
2018-11-25T08:27:08.847Z,85.60
2018-11-25T08:29:36.948Z,85.80
2018-11-25T08:32:05.260Z,85.70
2018-11-25T08:34:33.457Z,85.80
2018-11-25T08:37:01.553Z,85.70
2018-11-25T08:39:29.652Z,85.70
2018-11-25T08:41:57.763Z,85.60
2018-11-25T08:44:25.835Z,85.50
2018-11-25T08:46:53.915Z,85.30
2018-11-25T08:49:22.020Z,85.20
2018-11-25T08:51:52.521Z,85.10
2018-11-25T08:54:20.593Z,84.60
2018-11-25T08:56:49.487Z,85.00
2018-11-25T08:59:17.613Z,84.60
2018-11-25T09:01:45.726Z,84.80
2018-11-25T09:04:13.797Z,84.70
2018-11-25T09:06:41.892Z,84.70
2018-11-25T09:09:09.991Z,84.70
2018-11-25T09:11:38.109Z,84.60
2018-11-25T09:14:06.187Z,84.70
2018-11-25T09:16:34.263Z,84.80
2018-11-25T09:19:02.348Z,84.70
2018-11-25T09:21:30.460Z,84.80
2018-11-25T09:23:58.529Z,84.90
2018-11-25T09:26:26.643Z,84.90
2018-11-25T09:28:54.712Z,84.80
2018-11-25T09:31:23.632Z,84.90
2018-11-25T09:33:51.700Z,84.90
2018-11-25T09:36:19.796Z,84.90
2018-11-25T09:38:47.867Z,84.90
2018-11-25T09:41:15.977Z,84.70
2018-11-25T09:43:44.036Z,84.70
2018-11-25T09:46:12.100Z,84.60
2018-11-25T09:48:40.232Z,84.80
2018-11-25T09:51:08.331Z,84.60
2018-11-25T09:53:36.473Z,84.80
2018-11-25T09:56:05.310Z,84.90
2018-11-25T09:58:33.383Z,84.90
2018-11-25T10:01:01.494Z,84.80
2018-11-25T10:03:29.556Z,84.70
2018-11-25T10:05:57.653Z,84.60
2018-11-25T10:08:25.732Z,84.40
2018-11-25T10:10:53.862Z,84.20
2018-11-25T10:13:21.981Z,84.20
2018-11-25T10:15:49.999Z,84.10
2018-11-25T10:18:18.148Z,84.10
2018-11-25T10:20:46.264Z,84.50
2018-11-25T10:23:14.340Z,83.90
2018-11-25T10:25:42.417Z,83.70
2018-11-25T10:28:10.514Z,83.60
2018-11-25T10:30:38.567Z,83.70
2018-11-25T10:33:08.025Z,83.60
2018-11-25T10:35:36.129Z,83.50
2018-11-25T10:38:04.580Z,83.20
2018-11-25T10:40:32.688Z,83.30
2018-11-25T10:43:00.775Z,83.20
2018-11-25T10:45:29.055Z,83.10
2018-11-25T10:47:57.893Z,83.00
2018-11-25T10:50:25.970Z,83.00
2018-11-25T10:52:54.043Z,82.70
2018-11-25T10:55:22.528Z,82.60
2018-11-25T10:57:51.501Z,82.70
2018-11-25T11:00:30.938Z,82.80
2018-11-25T11:03:04.415Z,82.80
2018-11-25T11:05:37.999Z,82.80
2018-11-25T11:08:06.996Z,82.60
2018-11-25T11:10:35.095Z,82.70
2018-11-25T11:13:03.197Z,82.50
2018-11-25T11:15:31.289Z,83.20
2018-11-25T11:17:59.420Z,82.40
2018-11-25T11:20:27.475Z,82.30
2018-11-25T11:22:55.560Z,82.30
2018-11-25T11:25:23.645Z,82.30
2018-11-25T11:27:51.743Z,82.20
2018-11-25T11:30:19.791Z,82.20
2018-11-25T11:32:49.521Z,82.10
2018-11-25T11:35:17.581Z,82.30
2018-11-25T11:37:45.707Z,82.20
2018-11-25T11:40:14.558Z,82.20
2018-11-25T11:42:42.674Z,82.20
2018-11-25T11:45:11.848Z,82.20
2018-11-25T11:47:41.302Z,82.20
2018-11-25T11:50:10.828Z,82.10
2018-11-25T11:52:39.164Z,82.10
2018-11-25T11:55:11.472Z,81.80
2018-11-25T11:57:40.351Z,82.20
2018-11-25T12:00:17.487Z,82.20
2018-11-25T12:02:45.549Z,82.20
2018-11-25T12:05:13.667Z,82.20
2018-11-25T12:07:41.735Z,82.20
2018-11-25T12:10:12.924Z,82.20
2018-11-25T12:12:41.053Z,82.40
2018-11-25T12:15:12.125Z,82.20
2018-11-25T12:17:40.344Z,82.60
2018-11-25T12:20:09.301Z,82.20
2018-11-25T12:22:37.799Z,82.30
2018-11-25T12:25:07.892Z,82.40
2018-11-25T12:27:35.999Z,82.50
2018-11-25T12:30:04.961Z,82.50
2018-11-25T12:32:33.044Z,82.50
2018-11-25T12:35:01.115Z,82.40
2018-11-25T12:37:35.963Z,82.50
2018-11-25T12:39:57.603Z,82.50
2018-11-25T12:42:25.735Z,82.50
2018-11-25T12:44:53.804Z,82.50
2018-11-25T12:47:21.892Z,82.50
2018-11-25T12:49:49.971Z,82.40
2018-11-25T12:52:18.152Z,82.30
2018-11-25T12:54:46.297Z,82.40
2018-11-25T12:57:14.369Z,82.60
2018-11-25T12:59:42.549Z,82.40
2018-11-25T13:02:11.343Z,82.30
2018-11-25T13:04:39.415Z,82.30
2018-11-25T13:07:07.524Z,82.40
2018-11-25T13:09:35.627Z,82.40
2018-11-25T13:12:03.842Z,82.50
2018-11-25T13:14:32.220Z,83.40
2018-11-25T13:17:00.300Z,82.70
2018-11-25T13:19:28.587Z,82.70
2018-11-25T13:21:56.730Z,82.70
2018-11-25T13:24:24.815Z,82.70
2018-11-25T13:26:54.456Z,82.60
2018-11-25T13:29:22.754Z,82.80
2018-11-25T13:31:52.655Z,82.70
2018-11-25T13:34:20.860Z,82.80
2018-11-25T13:36:49.186Z,82.80
2018-11-25T13:39:17.268Z,82.70
2018-11-25T13:41:45.339Z,82.60
2018-11-25T13:44:13.428Z,82.70
2018-11-25T13:46:42.216Z,82.60
2018-11-25T13:49:10.340Z,82.60
2018-11-25T13:51:38.436Z,82.50
2018-11-25T13:54:06.532Z,82.60
2018-11-25T13:56:34.631Z,82.50
2018-11-25T13:59:02.729Z,82.60
2018-11-25T14:01:30.853Z,82.70
2018-11-25T14:03:58.929Z,82.60
2018-11-25T14:06:27.008Z,82.50
2018-11-25T14:08:55.431Z,82.80
2018-11-25T14:11:23.538Z,82.80
2018-11-25T14:13:51.590Z,82.50
2018-11-25T14:16:20.666Z,82.60
2018-11-25T14:18:48.741Z,82.60
2018-11-25T14:21:16.833Z,82.50
2018-11-25T14:23:44.919Z,82.40
2018-11-25T14:26:20.404Z,82.20
2018-11-25T14:28:49.196Z,82.10
2018-11-25T14:31:17.345Z,82.10
2018-11-25T14:33:45.391Z,82.20
2018-11-25T14:36:13.463Z,82.20
2018-11-25T14:38:42.415Z,82.30
2018-11-25T14:41:10.484Z,82.50
2018-11-25T14:43:38.599Z,82.60
2018-11-25T14:46:07.754Z,82.60
2018-11-25T14:48:35.836Z,82.40
2018-11-25T14:51:03.919Z,82.70
2018-11-25T14:53:31.998Z,82.70
2018-11-25T14:56:00.079Z,82.60
2018-11-25T14:58:28.152Z,82.60
2018-11-25T15:00:56.256Z,82.60
2018-11-25T15:03:24.375Z,82.70
2018-11-25T15:05:52.452Z,82.80
2018-11-25T15:08:22.383Z,82.70
2018-11-25T15:10:50.833Z,82.60
2018-11-25T15:13:19.037Z,82.70
2018-11-25T15:15:47.118Z,82.60
2018-11-25T15:18:15.207Z,82.60
2018-11-25T15:20:43.532Z,82.50
2018-11-25T15:23:13.652Z,82.30
2018-11-25T15:25:56.687Z,82.40
2018-11-25T15:28:24.803Z,80.60
2018-11-25T15:30:52.896Z,82.30
2018-11-25T15:33:20.977Z,82.60
2018-11-25T15:35:49.104Z,82.50
2018-11-25T15:38:17.192Z,82.60
2018-11-25T15:40:45.261Z,82.70
2018-11-25T15:43:13.340Z,82.70
2018-11-25T15:45:41.951Z,82.70
2018-11-25T15:48:14.583Z,82.70
2018-11-25T15:50:42.652Z,83.40
2018-11-25T15:53:11.295Z,82.70
2018-11-25T15:55:41.427Z,82.80
2018-11-25T15:58:09.591Z,82.80
2018-11-25T16:00:37.691Z,82.70
2018-11-25T16:03:08.033Z,82.90
2018-11-25T16:05:36.536Z,83.00
2018-11-25T16:08:04.660Z,83.00
2018-11-25T16:10:32.745Z,83.10
2018-11-25T16:13:00.878Z,83.00
2018-11-25T16:15:29.656Z,83.10
2018-11-25T16:17:57.779Z,83.30
2018-11-25T16:20:27.118Z,83.20
2018-11-25T16:22:56.720Z,83.30
2018-11-25T16:25:29.420Z,83.30
2018-11-25T16:28:00.713Z,83.30
2018-11-25T16:30:28.852Z,83.40
2018-11-25T16:32:56.954Z,83.40
2018-11-25T16:35:25.016Z,83.50
2018-11-25T16:37:53.380Z,83.60
2018-11-25T16:40:21.528Z,83.60
2018-11-25T16:42:49.658Z,85.00
2018-11-25T16:45:17.820Z,84.50
2018-11-25T16:47:45.909Z,84.60
2018-11-25T16:50:24.481Z,84.40
2018-11-25T16:52:44.373Z,84.40
2018-11-25T16:55:13.317Z,84.90
2018-11-25T16:57:42.179Z,84.40
2018-11-25T17:00:13.704Z,84.70
2018-11-25T17:02:41.864Z,84.30
2018-11-25T17:05:11.663Z,84.30
2018-11-25T17:07:40.568Z,84.50
2018-11-25T17:10:10.279Z,84.50
2018-11-25T17:12:38.686Z,84.70
2018-11-25T17:15:11.778Z,84.90
2018-11-25T17:17:40.138Z,84.90
2018-11-25T17:20:08.871Z,84.90
2018-11-25T17:22:36.948Z,85.00
2018-11-25T17:25:07.090Z,85.50
2018-11-25T17:27:35.400Z,85.00
2018-11-25T17:30:04.371Z,85.10
2018-11-25T17:32:32.444Z,85.00
2018-11-25T17:35:00.526Z,85.10
2018-11-25T17:37:28.684Z,85.10
2018-11-25T17:39:56.873Z,85.20
2018-11-25T17:42:25.008Z,85.90
2018-11-25T17:44:53.063Z,85.20
2018-11-25T17:47:21.120Z,85.20
2018-11-25T17:49:49.194Z,85.20
2018-11-25T17:52:17.266Z,85.10
2018-11-25T17:54:45.375Z,85.10
2018-11-25T17:57:13.441Z,85.10
2018-11-25T17:59:41.560Z,85.20
2018-11-25T18:02:09.641Z,85.30
2018-11-25T18:04:37.712Z,85.10
2018-11-25T18:07:05.817Z,85.20
2018-11-25T18:09:33.920Z,85.20
2018-11-25T18:12:02.028Z,85.20
2018-11-25T18:14:30.112Z,85.60
2018-11-25T18:17:01.585Z,85.40
2018-11-25T18:19:30.013Z,85.30
2018-11-25T18:22:00.351Z,85.00
2018-11-25T18:24:28.475Z,85.80
2018-11-25T18:26:56.547Z,85.80
2018-11-25T18:29:24.617Z,85.90
2018-11-25T18:31:52.697Z,86.10
2018-11-25T18:34:20.848Z,86.10
2018-11-25T18:36:48.983Z,86.10
2018-11-25T18:39:17.098Z,86.20
2018-11-25T18:41:45.176Z,86.30
2018-11-25T18:44:13.240Z,86.30
2018-11-25T18:46:46.569Z,86.40
2018-11-25T18:49:10.477Z,87.00
2018-11-25T18:51:38.568Z,86.40
2018-11-25T18:54:07.720Z,86.50
2018-11-25T18:56:35.808Z,86.50
2018-11-25T18:59:03.889Z,86.40
2018-11-25T19:01:39.076Z,86.30
2018-11-25T19:04:07.152Z,86.40
2018-11-25T19:06:35.289Z,86.40
2018-11-25T19:09:03.652Z,86.30
2018-11-25T19:11:31.725Z,86.30
2018-11-25T19:13:59.820Z,86.30
2018-11-25T19:16:27.940Z,86.30
2018-11-25T19:18:56.028Z,86.30
2018-11-25T19:21:24.396Z,86.20
2018-11-25T19:23:52.509Z,85.90
2018-11-25T19:26:20.615Z,86.40
2018-11-25T19:28:48.689Z,86.30
2018-11-25T19:31:17.028Z,86.40
2018-11-25T19:33:45.111Z,86.80
2018-11-25T19:36:13.218Z,86.40
2018-11-25T19:38:41.292Z,86.40
2018-11-25T19:41:09.617Z,86.40
2018-11-25T19:43:37.743Z,86.40
2018-11-25T19:46:06.098Z,86.30
2018-11-25T19:48:34.281Z,86.30
2018-11-25T19:51:02.395Z,86.40
2018-11-25T19:53:30.511Z,86.20
2018-11-25T19:55:58.899Z,86.30
2018-11-25T19:58:27.008Z,86.40
2018-11-25T20:00:55.108Z,86.40
2018-11-25T20:03:23.186Z,86.50
2018-11-25T20:05:51.275Z,86.50
2018-11-25T20:08:19.377Z,86.40
2018-11-25T20:10:47.447Z,86.40
2018-11-25T20:13:15.565Z,86.30
2018-11-25T20:15:44.060Z,86.40
2018-11-25T20:18:12.158Z,86.20
2018-11-25T20:20:40.218Z,86.30
2018-11-25T20:23:08.311Z,86.30
2018-11-25T20:25:36.406Z,86.40
2018-11-25T20:28:04.515Z,86.40
2018-11-25T20:30:33.345Z,86.40
2018-11-25T20:33:06.784Z,86.50
2018-11-25T20:35:34.915Z,86.50
2018-11-25T20:38:08.513Z,86.50
2018-11-25T20:40:36.844Z,86.50
2018-11-25T20:43:05.072Z,86.60
2018-11-25T20:45:39.268Z,86.50
2018-11-25T20:48:06.689Z,86.60
2018-11-25T20:50:34.815Z,86.60
2018-11-25T20:53:08.357Z,86.60
2018-11-25T20:55:36.655Z,86.70
2018-11-25T20:58:06.223Z,86.80
2018-11-25T21:00:34.320Z,86.70
2018-11-25T21:03:02.426Z,86.70
2018-11-25T21:05:30.505Z,86.70
2018-11-25T21:07:58.559Z,86.70
2018-11-25T21:10:26.652Z,86.80
2018-11-25T21:12:55.191Z,86.70
2018-11-25T21:15:23.580Z,87.50
2018-11-25T21:17:51.663Z,86.70
2018-11-25T21:20:21.099Z,86.80
2018-11-25T21:22:49.452Z,86.90
2018-11-25T21:25:19.386Z,86.90
2018-11-25T21:27:47.536Z,86.80
2018-11-25T21:30:20.861Z,86.80
2018-11-25T21:32:50.204Z,86.90
2018-11-25T21:35:18.308Z,86.90
2018-11-25T21:37:46.596Z,86.90
2018-11-25T21:40:17.472Z,86.90
2018-11-25T21:42:46.158Z,87.00
2018-11-25T21:45:15.119Z,87.00
2018-11-25T21:47:43.276Z,87.00
2018-11-25T21:50:15.595Z,86.90
2018-11-25T21:52:43.695Z,87.30
2018-11-25T21:55:14.596Z,86.90
2018-11-25T21:57:42.681Z,87.00
2018-11-25T22:00:14.379Z,87.10
2018-11-25T22:02:42.549Z,87.10
2018-11-25T22:05:14.451Z,87.10
2018-11-25T22:07:42.576Z,87.10
2018-11-25T22:10:13.708Z,87.10
2018-11-25T22:12:42.508Z,87.10
2018-11-25T22:15:13.133Z,87.00
2018-11-25T22:17:41.414Z,87.00
2018-11-25T22:20:10.683Z,87.00
2018-11-25T22:22:38.819Z,87.00
2018-11-25T22:25:09.152Z,86.90
2018-11-25T22:27:37.235Z,87.10
2018-11-25T22:30:10.569Z,87.00
2018-11-25T22:32:38.675Z,86.90
2018-11-25T22:35:08.999Z,87.50
2018-11-25T22:37:37.082Z,86.90
2018-11-25T22:40:07.372Z,86.80
2018-11-25T22:42:35.499Z,86.90
2018-11-25T22:45:03.659Z,86.90
2018-11-25T22:47:31.968Z,86.80
2018-11-25T22:50:00.085Z,86.80
2018-11-25T22:52:28.241Z,86.80
2018-11-25T22:54:56.332Z,86.80
2018-11-25T22:57:24.442Z,86.80
2018-11-25T22:59:52.526Z,86.70
2018-11-25T23:02:20.642Z,86.80
2018-11-25T23:05:00.277Z,86.70
2018-11-25T23:07:28.387Z,86.90
2018-11-25T23:09:56.616Z,86.80
2018-11-25T23:12:24.696Z,86.80
2018-11-25T23:14:52.792Z,86.80
2018-11-25T23:17:20.896Z,86.80
2018-11-25T23:19:49.023Z,86.80
2018-11-25T23:22:17.121Z,86.80
2018-11-25T23:24:45.234Z,87.00
2018-11-25T23:27:13.407Z,87.00
2018-11-25T23:29:42.189Z,86.90
2018-11-25T23:32:10.282Z,86.90
2018-11-25T23:34:38.660Z,86.90
2018-11-25T23:37:07.948Z,87.00
2018-11-25T23:39:36.019Z,87.00
2018-11-25T23:42:04.166Z,87.00
2018-11-25T23:44:32.267Z,87.00
2018-11-25T23:47:00.348Z,87.00
2018-11-25T23:49:28.475Z,87.20
2018-11-25T23:51:56.573Z,87.10
2018-11-25T23:54:24.707Z,87.20
2018-11-25T23:56:52.841Z,87.30
2018-11-25T23:59:20.931Z,87.30
